Time;durP1;ratioP1;P1;durP2;ratioP2;P2;SDS_P1;SDS_P2;PMS_P1;PMS_P2;Temp;Humidity;BMP_temperature;BMP_pressure;BME280_temperature;BME280_humidity;BME280_pressure;Samples;Min_cycle;Max_cycle;Signal;HPM_P1;HPM_P2
2022/01/29 00:01:49;;;;;;;9.27;4.87;;;1.30;99.90;;;;;;5010687;28;20029;-80
2022/01/29 00:04:16;;;;;;;10.63;5.20;;;1.30;99.90;;;;;;5010923;28;20052;-79
2022/01/29 00:06:43;;;;;;;9.40;5.27;;;1.30;99.90;;;;;;5011292;28;20789;-80
2022/01/29 00:09:13;;;;;;;10.23;4.80;;;1.30;99.90;;;;;;5010511;28;20040;-79
2022/01/29 00:11:39;;;;;;;12.30;6.00;;;1.30;99.90;;;;;;5010975;28;20064;-79
2022/01/29 00:14:06;;;;;;;9.43;5.20;;;1.30;99.90;;;;;;5010809;28;20054;-79
2022/01/29 00:16:31;;;;;;;10.80;5.03;;;1.40;99.90;;;;;;5010980;28;20021;-79
2022/01/29 00:18:57;;;;;;;10.43;5.63;;;1.50;99.90;;;;;;5010607;28;20766;-79
2022/01/29 00:21:23;;;;;;;9.67;5.87;;;1.50;99.90;;;;;;5010715;28;20166;-79
2022/01/29 00:23:48;;;;;;;8.67;5.57;;;1.40;99.90;;;;;;5010833;28;20455;-80
2022/01/29 00:26:14;;;;;;;12.57;6.00;;;1.50;99.90;;;;;;5003982;28;20104;-79
2022/01/29 00:28:39;;;;;;;10.53;5.53;;;1.50;99.90;;;;;;5006112;28;20107;-79
2022/01/29 00:31:10;;;;;;;10.23;5.73;;;1.50;99.90;;;;;;5010207;28;20041;-80
2022/01/29 00:33:37;;;;;;;11.60;5.97;;;1.50;99.90;;;;;;5009526;28;20030;-80
2022/01/29 00:36:02;;;;;;;9.70;6.20;;;1.50;99.90;;;;;;5010950;28;20022;-79
2022/01/29 00:38:28;;;;;;;10.93;5.57;;;1.40;99.90;;;;;;5010197;28;20037;-79
2022/01/29 00:40:53;;;;;;;13.70;6.33;;;1.40;99.90;;;;;;5010619;28;20045;-80
2022/01/29 00:43:19;;;;;;;10.73;5.77;;;1.30;99.90;;;;;;5010379;28;20038;-79
2022/01/29 00:45:45;;;;;;;10.77;5.80;;;1.30;99.90;;;;;;5011451;28;20107;-79
2022/01/29 00:48:10;;;;;;;11.47;6.00;;;1.20;99.90;;;;;;5010658;28;20093;-79
2022/01/29 00:50:36;;;;;;;13.00;5.90;;;1.20;99.90;;;;;;5010799;28;20150;-79
2022/01/29 00:53:01;;;;;;;10.93;5.83;;;1.20;99.90;;;;;;5010759;28;20109;-79
2022/01/29 00:55:27;;;;;;;10.80;5.83;;;1.20;99.90;;;;;;5009173;28;20044;-80
2022/01/29 00:57:52;;;;;;;12.77;6.07;;;1.10;99.90;;;;;;5010662;28;20065;-80
2022/01/29 01:00:18;;;;;;;11.60;6.13;;;1.10;99.90;;;;;;5010188;28;20054;-80
2022/01/29 01:02:44;;;;;;;10.40;5.90;;;1.10;99.90;;;;;;5009718;28;20062;-80
2022/01/29 01:05:10;;;;;;;13.23;6.90;;;1.00;99.90;;;;;;5010070;28;20075;-80
2022/01/29 01:07:36;;;;;;;10.77;6.27;;;1.00;99.90;;;;;;5010381;28;20140;-80
2022/01/29 01:10:02;;;;;;;14.10;7.17;;;1.00;99.90;;;;;;5010086;28;20034;-80
2022/01/29 01:12:28;;;;;;;27.30;7.30;;;1.00;99.90;;;;;;5009724;28;20062;-80
2022/01/29 01:14:53;;;;;;;11.90;6.77;;;0.90;99.90;;;;;;5014243;28;20056;-80
2022/01/29 01:17:19;;;;;;;11.43;6.40;;;0.90;99.90;;;;;;5014197;28;20368;-80
2022/01/29 01:19:45;;;;;;;11.00;6.40;;;0.90;99.90;;;;;;5013366;28;20033;-80
2022/01/29 01:22:11;;;;;;;9.80;6.20;;;0.90;99.90;;;;;;5003721;28;20064;-81
2022/01/29 01:24:37;;;;;;;12.20;5.87;;;0.90;99.90;;;;;;5010610;28;20033;-80
2022/01/29 01:27:03;;;;;;;13.63;7.00;;;0.90;99.90;;;;;;5005211;28;20037;-80
2022/01/29 01:29:28;;;;;;;11.50;6.50;;;0.90;99.90;;;;;;5012058;28;20092;-80
2022/01/29 01:31:54;;;;;;;13.90;7.53;;;0.80;99.90;;;;;;5013126;28;20030;-80
2022/01/29 01:34:22;;;;;;;11.53;6.50;;;0.80;99.90;;;;;;5013550;28;20030;-80
2022/01/29 01:36:56;;;;;;;12.60;6.40;;;0.80;99.90;;;;;;5013569;28;20018;-80
2022/01/29 01:39:27;;;;;;;10.98;6.10;;;0.80;99.90;;;;;;5013423;28;20038;-80
2022/01/29 01:42:04;;;;;;;12.00;6.63;;;0.80;99.90;;;;;;5011526;28;20112;-80
2022/01/29 01:44:42;;;;;;;12.73;6.73;;;0.80;99.90;;;;;;5013463;28;20052;-81
2022/01/29 01:47:09;;;;;;;11.60;6.37;;;0.90;99.90;;;;;;5012400;28;20026;-80
2022/01/29 01:49:35;;;;;;;11.03;6.53;;;0.90;99.90;;;;;;5011849;28;20490;-80
2022/01/29 01:52:01;;;;;;;11.20;6.33;;;0.90;99.90;;;;;;5013030;28;20018;-80
2022/01/29 01:54:27;;;;;;;11.87;6.60;;;0.90;99.90;;;;;;5013121;28;20022;-81
2022/01/29 01:56:52;;;;;;;10.03;6.67;;;0.90;99.90;;;;;;5013389;28;20032;-80
2022/01/29 01:59:18;;;;;;;13.20;7.13;;;0.80;99.90;;;;;;5012876;28;20034;-79
2022/01/29 02:01:44;;;;;;;12.30;6.23;;;0.90;99.90;;;;;;5013142;28;20077;-80
2022/01/29 02:04:09;;;;;;;14.50;6.93;;;0.90;99.90;;;;;;5012950;28;20050;-79
2022/01/29 02:06:35;;;;;;;14.43;6.97;;;0.90;99.90;;;;;;5013071;28;20341;-80
2022/01/29 02:09:01;;;;;;;10.37;7.03;;;0.80;99.90;;;;;;5012824;28;20034;-80
2022/01/29 02:11:28;;;;;;;12.20;6.77;;;0.90;99.90;;;;;;5011429;28;20084;-80
2022/01/29 02:13:56;;;;;;;11.23;6.20;;;0.90;99.90;;;;;;5013008;28;20090;-80
2022/01/29 02:16:22;;;;;;;14.37;6.60;;;0.90;99.90;;;;;;5012934;28;20083;-80
2022/01/29 02:18:48;;;;;;;11.93;6.03;;;0.90;99.90;;;;;;5012535;28;20463;-80
2022/01/29 02:21:15;;;;;;;12.67;6.87;;;0.90;99.90;;;;;;5012982;28;20383;-79
2022/01/29 02:23:41;;;;;;;11.03;6.97;;;0.90;99.90;;;;;;5010888;28;20095;-80
2022/01/29 02:26:06;;;;;;;13.57;6.80;;;0.90;99.90;;;;;;5006329;28;20030;-80
2022/01/29 02:28:32;;;;;;;10.10;6.23;;;0.90;99.90;;;;;;4992999;28;20071;-78
2022/01/29 02:31:02;;;;;;;14.03;6.90;;;0.90;99.90;;;;;;5005809;28;20030;-78
2022/01/29 02:33:29;;;;;;;13.47;6.97;;;0.90;99.90;;;;;;5012863;28;20048;-78
2022/01/29 02:35:56;;;;;;;11.60;6.20;;;0.90;99.90;;;;;;5012886;28;20036;-79
2022/01/29 02:38:24;;;;;;;14.60;7.33;;;0.90;99.90;;;;;;5012673;28;20014;-78
2022/01/29 02:40:57;;;;;;;11.63;6.70;;;0.90;99.90;;;;;;5012496;28;20049;-78
2022/01/29 02:43:43;;;;;;;12.87;6.40;;;0.90;99.90;;;;;;5012621;28;20032;-78
2022/01/29 02:48:45;;;;;;;12.73;6.87;;;0.90;99.90;;;;;;5012896;28;20125;-78
2022/01/29 02:51:11;;;;;;;13.83;7.23;;;0.90;99.90;;;;;;5012589;28;20382;-77
2022/01/29 02:53:38;;;;;;;14.00;6.87;;;0.90;99.90;;;;;;5012290;28;20061;-78
2022/01/29 02:56:04;;;;;;;11.67;6.53;;;0.90;99.90;;;;;;5012623;28;20030;-78
2022/01/29 02:58:30;;;;;;;12.30;6.83;;;0.90;99.90;;;;;;5012429;28;20093;-78
2022/01/29 03:00:55;;;;;;;15.43;7.23;;;0.90;99.90;;;;;;5012417;28;20104;-78
2022/01/29 03:03:21;;;;;;;10.83;6.10;;;0.90;99.90;;;;;;5012285;28;20085;-78
2022/01/29 03:05:46;;;;;;;11.80;6.73;;;0.90;99.90;;;;;;5011781;28;20394;-78
2022/01/29 03:08:12;;;;;;;12.33;6.20;;;0.90;99.90;;;;;;5012233;28;20511;-78
2022/01/29 03:10:38;;;;;;;12.27;6.33;;;0.90;99.90;;;;;;5012127;28;20482;-78
2022/01/29 03:13:04;;;;;;;12.77;7.20;;;1.00;99.90;;;;;;5012174;28;20099;-78
2022/01/29 03:15:29;;;;;;;9.20;6.20;;;1.00;99.90;;;;;;5011897;28;20064;-78
2022/01/29 03:17:55;;;;;;;10.80;6.43;;;1.00;99.90;;;;;;5011917;28;20054;-78
2022/01/29 03:20:21;;;;;;;10.43;6.00;;;1.00;99.90;;;;;;5010629;28;20041;-79
2022/01/29 03:22:46;;;;;;;15.17;6.27;;;1.00;99.90;;;;;;5012093;28;20030;-78
2022/01/29 03:25:12;;;;;;;10.03;5.73;;;1.00;99.90;;;;;;5006602;28;20027;-77
2022/01/29 03:27:38;;;;;;;9.47;5.50;;;1.00;99.90;;;;;;5004296;28;20104;-78
2022/01/29 03:30:05;;;;;;;10.30;5.23;;;1.00;99.90;;;;;;5011428;28;20116;-78
2022/01/29 03:32:31;;;;;;;10.30;5.17;;;0.90;99.90;;;;;;5010758;28;20660;-78
2022/01/29 03:34:57;;;;;;;10.70;5.13;;;1.00;99.90;;;;;;5011752;28;20030;-78
2022/01/29 03:37:22;;;;;;;11.63;5.20;;;1.00;99.90;;;;;;5008920;28;20026;-78
2022/01/29 03:39:48;;;;;;;11.03;5.23;;;1.00;99.90;;;;;;5011223;28;20544;-78
2022/01/29 03:42:15;;;;;;;10.93;5.30;;;1.10;99.90;;;;;;5011618;28;20018;-78
2022/01/29 03:44:40;;;;;;;8.07;4.87;;;1.00;99.90;;;;;;5011606;28;20030;-78
2022/01/29 03:47:06;;;;;;;9.43;5.13;;;1.00;99.90;;;;;;5011526;28;20051;-78
2022/01/29 03:49:32;;;;;;;9.33;5.10;;;1.10;99.90;;;;;;5011089;28;20570;-78
2022/01/29 03:51:57;;;;;;;11.33;5.10;;;1.10;99.90;;;;;;5011501;28;20082;-78
2022/01/29 03:54:23;;;;;;;8.33;4.87;;;1.20;99.90;;;;;;5011331;28;20029;-78
2022/01/29 03:56:49;;;;;;;10.53;5.20;;;1.10;99.90;;;;;;5010102;28;20113;-77
2022/01/29 03:59:14;;;;;;;9.97;5.10;;;1.20;99.90;;;;;;5011269;28;20026;-77
2022/01/29 04:01:40;;;;;;;8.07;4.67;;;1.20;99.90;;;;;;5011357;28;20483;-77
2022/01/29 04:04:06;;;;;;;7.90;5.23;;;1.30;99.90;;;;;;5010916;28;20042;-77
2022/01/29 04:06:31;;;;;;;12.00;5.47;;;1.30;99.90;;;;;;5009694;28;20030;-78
2022/01/29 04:08:57;;;;;;;10.70;5.30;;;1.20;99.90;;;;;;5010963;28;20030;-79
2022/01/29 04:11:23;;;;;;;10.40;5.30;;;1.20;99.90;;;;;;5010883;28;20037;-78
2022/01/29 04:13:49;;;;;;;8.93;5.60;;;1.20;99.90;;;;;;5011010;28;20029;-76
2022/01/29 04:16:17;;;;;;;12.50;6.00;;;1.20;99.90;;;;;;5010952;28;20076;-77
2022/01/29 04:18:42;;;;;;;11.70;4.90;;;1.20;99.90;;;;;;5010891;28;20029;-77
2022/01/29 04:21:09;;;;;;;9.83;4.77;;;1.20;99.90;;;;;;5009991;28;20841;-79
2022/01/29 04:23:35;;;;;;;11.20;5.27;;;1.20;99.90;;;;;;5010666;28;20033;-78
2022/01/29 04:26:02;;;;;;;7.57;5.13;;;1.20;99.90;;;;;;5008521;28;20041;-78
2022/01/29 04:28:32;;;;;;;7.10;4.73;;;1.20;99.90;;;;;;5010786;28;20022;-78
2022/01/29 04:31:03;;;;;;;10.03;4.90;;;1.20;99.90;;;;;;5009640;28;20025;-78
2022/01/29 04:33:28;;;;;;;8.00;5.20;;;1.20;99.90;;;;;;5010695;28;20049;-78
2022/01/29 04:35:56;;;;;;;8.07;5.03;;;1.20;99.90;;;;;;5010909;28;20058;-78
2022/01/29 04:38:21;;;;;;;10.47;4.70;;;1.20;99.90;;;;;;5010599;28;20083;-78
2022/01/29 04:40:47;;;;;;;8.30;5.20;;;1.20;99.90;;;;;;5010739;28;20026;-78
2022/01/29 04:43:13;;;;;;;10.90;5.70;;;1.20;99.90;;;;;;5010725;28;20025;-78
2022/01/29 04:45:40;;;;;;;10.47;5.53;;;1.10;99.90;;;;;;5010116;28;20030;-78
2022/01/29 04:48:05;;;;;;;13.77;5.13;;;1.20;99.90;;;;;;5009036;28;20026;-78
2022/01/29 04:50:31;;;;;;;8.03;5.27;;;1.10;99.90;;;;;;5010390;28;20104;-78
2022/01/29 04:52:56;;;;;;;9.70;5.80;;;1.10;99.90;;;;;;5010423;28;20029;-78
2022/01/29 04:55:22;;;;;;;13.67;5.80;;;1.10;99.90;;;;;;5010361;28;20022;-78
2022/01/29 04:57:47;;;;;;;11.60;5.60;;;1.10;99.90;;;;;;5010476;28;20056;-77
2022/01/29 05:00:20;;;;;;;11.27;5.33;;;1.10;99.90;;;;;;5010101;28;20065;-78
2022/01/29 05:02:47;;;;;;;10.40;5.43;;;1.10;99.90;;;;;;5009198;28;20425;-77
2022/01/29 05:05:12;;;;;;;9.43;5.50;;;1.10;99.90;;;;;;5008657;28;20502;-77
2022/01/29 05:07:38;;;;;;;9.37;5.77;;;1.10;99.90;;;;;;5010492;28;20026;-77
2022/01/29 05:10:04;;;;;;;10.27;5.33;;;1.10;99.90;;;;;;5010176;28;20088;-77
2022/01/29 05:12:40;;;;;;;9.47;5.97;;;1.10;99.90;;;;;;5010677;28;20026;-77
2022/01/29 05:15:27;;;;;;;9.33;5.67;;;1.10;99.90;;;;;;5010435;28;20018;-77
2022/01/29 05:28:49;;;;;;;10.13;5.57;;;1.00;99.90;;;;;;4990862;28;20033;-77
2022/01/29 05:31:15;;;;;;;9.83;5.87;;;1.00;99.90;;;;;;4990776;28;20034;-77
2022/01/29 05:33:40;;;;;;;8.27;5.63;;;0.90;99.90;;;;;;4989145;28;20365;-77
2022/01/29 05:36:06;;;;;;;9.20;5.47;;;0.90;99.90;;;;;;4990572;28;20377;-78
2022/01/29 05:38:33;;;;;;;12.40;5.60;;;0.80;99.90;;;;;;5007159;28;20088;-78
2022/01/29 05:40:59;;;;;;;12.97;6.00;;;0.80;99.90;;;;;;5010400;28;20029;-77
2022/01/29 05:43:25;;;;;;;8.97;5.53;;;0.80;99.90;;;;;;5009017;28;20022;-78
2022/01/29 05:45:50;;;;;;;10.80;5.73;;;0.80;99.90;;;;;;5010891;28;20082;-78
2022/01/29 05:48:16;;;;;;;9.60;5.40;;;0.80;99.90;;;;;;5009761;28;20037;-78
2022/01/29 05:50:42;;;;;;;9.97;6.00;;;0.80;99.90;;;;;;5009658;28;20100;-79
2022/01/29 05:53:07;;;;;;;9.97;5.40;;;0.90;99.90;;;;;;5009777;28;20058;-78
2022/01/29 05:55:33;;;;;;;9.53;5.53;;;0.80;99.90;;;;;;5010071;28;20034;-78
2022/01/29 05:57:58;;;;;;;8.87;5.53;;;0.90;99.90;;;;;;5009628;28;20133;-78
2022/01/29 06:00:24;;;;;;;10.53;5.93;;;0.90;99.90;;;;;;5011881;28;20034;-78
2022/01/29 06:03:09;;;;;;;9.47;5.70;;;0.90;99.90;;;;;;5012963;28;20112;-78
2022/01/29 06:05:35;;;;;;;9.30;6.15;;;0.90;99.90;;;;;;5010177;28;20048;-77
2022/01/29 06:08:02;;;;;;;11.73;5.97;;;1.00;99.90;;;;;;5011531;28;20037;-78
2022/01/29 06:10:27;;;;;;;10.80;5.90;;;0.90;99.90;;;;;;5009499;28;20044;-77
2022/01/29 06:13:14;;;;;;;14.47;6.60;;;0.90;99.90;;;;;;5002555;28;20116;-79
2022/01/29 06:15:49;;;;;;;9.80;6.03;;;0.90;99.90;;;;;;5006708;28;20025;-78
2022/01/29 06:18:18;;;;;;;9.20;5.75;;;0.90;99.90;;;;;;5003383;28;20025;-78
2022/01/29 06:20:45;;;;;;;10.37;6.10;;;0.90;99.90;;;;;;5003373;28;20025;-78
2022/01/29 06:23:13;;;;;;;13.03;6.77;;;0.90;99.90;;;;;;5004267;28;20053;-78
2022/01/29 06:25:39;;;;;;;9.40;5.83;;;0.90;99.90;;;;;;5005594;28;20091;-78
2022/01/29 06:28:04;;;;;;;12.67;6.70;;;0.90;99.90;;;;;;5003304;28;20022;-78
2022/01/29 06:30:31;;;;;;;9.80;6.23;;;0.90;99.90;;;;;;5001440;28;20109;-78
2022/01/29 06:32:56;;;;;;;7.87;5.73;;;0.90;99.90;;;;;;5002998;28;20018;-78
2022/01/29 06:35:22;;;;;;;10.10;6.20;;;0.90;99.90;;;;;;5002581;28;20033;-78
2022/01/29 06:37:48;;;;;;;11.70;6.17;;;0.90;99.90;;;;;;5001449;28;20475;-78
2022/01/29 06:40:13;;;;;;;8.90;5.77;;;0.90;99.90;;;;;;5003901;28;20025;-78
2022/01/29 06:42:40;;;;;;;15.60;8.20;;;0.90;99.90;;;;;;5004111;28;20062;-78
2022/01/29 06:45:05;;;;;;;17.37;7.83;;;1.00;99.90;;;;;;5001207;28;20050;-78
2022/01/29 06:47:31;;;;;;;10.80;6.43;;;1.00;99.90;;;;;;5001374;28;20416;-78
2022/01/29 06:49:57;;;;;;;10.50;6.03;;;1.00;99.90;;;;;;5002272;28;20026;-78
2022/01/29 06:52:23;;;;;;;9.37;5.03;;;1.10;99.90;;;;;;5004823;28;20026;-78
2022/01/29 06:54:49;;;;;;;8.43;5.83;;;1.10;99.90;;;;;;5003199;28;20042;-79
2022/01/29 06:57:15;;;;;;;8.63;5.90;;;1.10;99.90;;;;;;5000819;28;20768;-78
2022/01/29 06:59:40;;;;;;;10.17;6.23;;;1.10;99.90;;;;;;5001808;28;20054;-78
2022/01/29 07:02:06;;;;;;;11.07;6.20;;;1.10;99.90;;;;;;5000898;28;20049;-78
2022/01/29 07:04:32;;;;;;;10.03;5.50;;;1.10;99.90;;;;;;5003081;28;20046;-78
2022/01/29 07:06:58;;;;;;;8.40;5.90;;;1.10;99.90;;;;;;5004746;28;20085;-78
2022/01/29 07:09:23;;;;;;;8.83;5.20;;;1.10;99.90;;;;;;5003328;28;20022;-77
2022/01/29 07:11:55;;;;;;;10.27;5.60;;;1.10;99.90;;;;;;5000423;28;20149;-77
2022/01/29 07:14:20;;;;;;;10.13;5.77;;;1.10;99.90;;;;;;5004235;28;20088;-77
2022/01/29 07:16:46;;;;;;;9.40;5.80;;;1.10;99.90;;;;;;5001440;28;20015;-78
2022/01/29 07:19:12;;;;;;;8.37;5.00;;;1.20;99.90;;;;;;5004730;28;20147;-78
2022/01/29 07:21:38;;;;;;;8.87;4.50;;;1.20;99.90;;;;;;4999240;28;20357;-78
2022/01/29 07:24:04;;;;;;;7.53;4.43;;;1.20;99.90;;;;;;5001565;28;20081;-78
2022/01/29 07:26:30;;;;;;;7.60;4.63;;;1.30;99.90;;;;;;5006652;28;20443;-79
2022/01/29 07:28:55;;;;;;;10.17;4.87;;;1.30;99.90;;;;;;5001600;28;20109;-78
2022/01/29 07:31:21;;;;;;;7.90;4.27;;;1.40;99.90;;;;;;5002982;28;20650;-80
2022/01/29 07:33:47;;;;;;;8.53;4.80;;;1.40;99.90;;;;;;4994232;28;20494;-79
2022/01/29 07:36:12;;;;;;;6.97;4.40;;;1.50;99.90;;;;;;4994081;28;20026;-78
2022/01/29 07:38:38;;;;;;;6.93;4.43;;;1.50;99.90;;;;;;5003651;28;20030;-79
2022/01/29 07:41:03;;;;;;;6.07;4.20;;;1.60;99.90;;;;;;5006475;28;20030;-79
2022/01/29 07:43:29;;;;;;;7.97;4.73;;;1.70;99.90;;;;;;4999948;28;20026;-80
2022/01/29 07:45:55;;;;;;;8.53;4.27;;;1.70;99.90;;;;;;5010043;28;20037;-81
2022/01/29 07:48:20;;;;;;;10.70;4.70;;;1.70;99.90;;;;;;5011277;28;20358;-81
2022/01/29 07:50:46;;;;;;;7.40;4.53;;;1.80;99.90;;;;;;5010813;28;20044;-81
2022/01/29 07:53:11;;;;;;;9.60;4.77;;;1.90;99.90;;;;;;4994966;28;20101;-79
2022/01/29 07:55:37;;;;;;;6.57;4.10;;;1.90;99.90;;;;;;5008451;28;20089;-82
2022/01/29 07:58:05;;;;;;;7.07;4.37;;;2.00;99.90;;;;;;5010232;28;20078;-83
2022/01/29 08:00:30;;;;;;;5.80;4.00;;;2.10;99.90;;;;;;5008184;28;20032;-82
2022/01/29 08:02:56;;;;;;;8.70;4.27;;;2.10;99.90;;;;;;5009656;28;20046;-82
2022/01/29 08:05:21;;;;;;;6.43;4.30;;;2.20;99.90;;;;;;5010927;28;20478;-82
2022/01/29 08:07:47;;;;;;;7.87;4.10;;;2.20;99.90;;;;;;5007579;28;20149;-82
2022/01/29 08:10:12;;;;;;;7.00;4.07;;;2.30;99.90;;;;;;4998168;28;20112;-82
2022/01/29 08:12:38;;;;;;;6.30;3.80;;;2.30;99.90;;;;;;5009434;28;20610;-82
2022/01/29 08:15:05;;;;;;;6.40;3.73;;;2.30;99.90;;;;;;5008033;28;20034;-82
2022/01/29 08:17:31;;;;;;;7.33;4.27;;;2.40;99.90;;;;;;5007566;28;20030;-83
2022/01/29 08:20:00;;;;;;;9.27;3.93;;;2.40;99.90;;;;;;5008215;28;20038;-83
2022/01/29 08:22:25;;;;;;;5.10;3.90;;;2.50;99.90;;;;;;5007724;28;20033;-83
2022/01/29 08:24:52;;;;;;;8.20;3.93;;;2.50;99.90;;;;;;5003354;28;20398;-83
2022/01/29 08:27:18;;;;;;;6.50;3.90;;;2.60;99.90;;;;;;4999864;28;20029;-82
2022/01/29 08:29:44;;;;;;;6.60;4.17;;;2.70;99.90;;;;;;5006196;28;20773;-82
2022/01/29 08:32:09;;;;;;;6.87;4.00;;;2.70;99.90;;;;;;5008224;28;20152;-82
2022/01/29 08:34:35;;;;;;;9.17;3.90;;;2.80;99.90;;;;;;5006164;28;20415;-81
2022/01/29 08:37:03;;;;;;;7.07;4.20;;;2.80;99.90;;;;;;5007757;28;20060;-81
2022/01/29 08:39:29;;;;;;;6.03;3.40;;;3.00;99.90;;;;;;5006410;28;20032;-82
2022/01/29 08:41:55;;;;;;;6.17;3.60;;;3.10;99.90;;;;;;5007742;28;20391;-82
2022/01/29 08:44:21;;;;;;;6.33;3.80;;;3.10;99.90;;;;;;5007065;28;20120;-82
2022/01/29 08:46:46;;;;;;;6.30;4.10;;;3.10;99.90;;;;;;4988213;28;20132;-82
2022/01/29 08:49:12;;;;;;;8.87;4.47;;;3.20;99.90;;;;;;5006814;28;20453;-82
2022/01/29 08:51:37;;;;;;;8.03;3.80;;;3.10;99.90;;;;;;5007473;28;20562;-81
2022/01/29 08:54:03;;;;;;;8.07;3.70;;;3.20;99.90;;;;;;5006902;28;20491;-81
2022/01/29 08:56:29;;;;;;;8.70;3.80;;;3.20;99.90;;;;;;5007553;28;20125;-82
2022/01/29 08:58:55;;;;;;;9.23;4.20;;;3.20;99.90;;;;;;5007289;28;20109;-81
2022/01/29 09:01:20;;;;;;;7.57;3.30;;;3.20;99.90;;;;;;5006959;28;20116;-81
2022/01/29 09:03:46;;;;;;;6.67;3.50;;;3.30;99.90;;;;;;5008209;28;20037;-77
2022/01/29 09:06:12;;;;;;;7.97;3.40;;;3.30;99.90;;;;;;5012934;28;20099;-77
2022/01/29 09:08:39;;;;;;;7.13;3.60;;;3.40;99.90;;;;;;5013167;28;20026;-76
2022/01/29 09:11:05;;;;;;;11.40;3.43;;;3.40;99.90;;;;;;5011502;28;20030;-76
2022/01/29 09:13:31;;;;;;;7.53;3.00;;;3.40;99.90;;;;;;5012891;28;20022;-76
2022/01/29 09:15:57;;;;;;;10.23;3.67;;;3.50;99.90;;;;;;5013153;28;20399;-77
2022/01/29 09:18:23;;;;;;;6.27;2.73;;;3.50;99.90;;;;;;5013093;28;20100;-77
2022/01/29 09:20:48;;;;;;;4.17;2.70;;;3.70;99.90;;;;;;5012905;28;20053;-76
2022/01/29 09:23:14;;;;;;;7.77;2.83;;;3.80;99.90;;;;;;5012988;28;20481;-77
2022/01/29 09:25:40;;;;;;;4.20;2.73;;;3.90;99.90;;;;;;5011497;28;20041;-77
2022/01/29 09:28:06;;;;;;;5.43;3.00;;;3.90;99.90;;;;;;5012734;28;20116;-77
2022/01/29 09:30:34;;;;;;;4.07;2.23;;;3.90;99.90;;;;;;5013225;28;20109;-77
2022/01/29 09:33:00;;;;;;;4.37;2.43;;;4.00;99.90;;;;;;5012727;28;20022;-75
2022/01/29 09:35:26;;;;;;;6.20;2.40;;;4.10;99.90;;;;;;5013960;28;20026;-76
2022/01/29 09:37:53;;;;;;;5.13;2.07;;;4.10;99.90;;;;;;5016970;28;20029;-76
2022/01/29 09:40:18;;;;;;;5.37;2.10;;;4.20;99.90;;;;;;5016450;28;20034;-77
2022/01/29 09:42:46;;;;;;;5.47;2.53;;;4.20;99.90;;;;;;5016648;28;20123;-76
2022/01/29 09:45:13;;;;;;;5.10;2.20;;;4.30;99.90;;;;;;5016604;28;20025;-76
2022/01/29 09:47:43;;;;;;;6.03;2.17;;;4.40;99.90;;;;;;5016013;28;20025;-76
2022/01/29 09:50:10;;;;;;;4.33;1.80;;;4.50;99.90;;;;;;5011941;28;20418;-77
2022/01/29 09:52:36;;;;;;;4.47;1.73;;;4.50;99.90;;;;;;5014124;28;20026;-77
2022/01/29 09:55:03;;;;;;;3.00;1.97;;;4.50;99.90;;;;;;5010621;28;20026;-80
2022/01/29 09:57:28;;;;;;;6.90;1.67;;;4.50;99.90;;;;;;5012752;28;20034;-80
2022/01/29 09:59:54;;;;;;;2.90;1.60;;;4.50;99.90;;;;;;5014406;28;20475;-80
2022/01/29 10:02:20;;;;;;;7.93;1.80;;;4.60;99.90;;;;;;5013230;28;20530;-80
2022/01/29 10:04:51;;;;;;;6.50;2.23;;;4.60;99.90;;;;;;5014787;28;20098;-78
2022/01/29 10:07:28;;;;;;;7.57;1.90;;;4.70;99.90;;;;;;5013075;28;20022;-80
2022/01/29 10:09:56;;;;;;;5.83;1.53;;;4.70;99.90;;;;;;5015012;28;20073;-79
2022/01/29 10:12:31;;;;;;;4.37;1.50;;;4.70;99.90;;;;;;5015492;28;20041;-81
2022/01/29 10:14:58;;;;;;;3.42;1.42;;;4.80;99.90;;;;;;5013867;28;20084;-81
2022/01/29 10:17:45;;;;;;;2.33;1.37;;;4.80;99.90;;;;;;5014121;28;20041;-81
2022/01/29 10:20:21;;;;;;;3.13;1.33;;;4.80;99.90;;;;;;5012297;28;20092;-81
2022/01/29 10:22:58;;;;;;;4.23;1.30;;;4.80;99.90;;;;;;5013352;28;20557;-81
2022/01/29 10:25:37;;;;;;;3.80;1.40;;;4.90;99.90;;;;;;5014745;28;20034;-81
2022/01/29 10:28:09;;;;;;;1.47;1.23;;;4.80;99.90;;;;;;5011483;28;20049;-80
2022/01/29 10:30:48;;;;;;;2.67;1.43;;;4.80;99.90;;;;;;5014684;28;20026;-79
2022/01/29 10:33:26;;;;;;;3.90;1.50;;;4.80;99.90;;;;;;5013394;28;20026;-80
2022/01/29 10:36:01;;;;;;;6.80;1.70;;;4.90;99.90;;;;;;5003887;28;20532;-78
2022/01/29 10:38:30;;;;;;;;;;;4.90;99.90;;;;;;4999785;28;20018;-78
2022/01/29 10:41:23;;;;;;;3.03;1.50;;;4.90;99.90;;;;;;5006460;28;19921;-79
2022/01/29 10:44:20;;;;;;;5.00;1.60;;;5.00;99.90;;;;;;4997783;28;20033;-81
2022/01/29 10:46:46;;;;;;;2.73;1.53;;;5.10;99.90;;;;;;5006097;28;20021;-80
2022/01/29 10:49:30;;;;;;;6.17;1.57;;;5.10;99.90;;;;;;5009593;28;20140;-81
2022/01/29 10:52:02;;;;;;;4.27;1.60;;;5.20;99.90;;;;;;5006935;28;20048;-80
2022/01/29 10:54:31;;;;;;;3.37;1.33;;;5.30;99.90;;;;;;5001756;28;20109;-80
2022/01/29 10:57:01;;;;;;;2.60;1.50;;;5.40;99.90;;;;;;4998262;28;20753;-79
2022/01/29 10:59:30;;;;;;;2.60;1.50;;;5.40;99.90;;;;;;5007398;28;20457;-75
2022/01/29 11:02:02;;;;;;;3.17;1.43;;;5.50;99.90;;;;;;4994430;28;20082;-79
2022/01/29 11:04:29;;;;;;;3.43;1.40;;;5.50;99.90;;;;;;5007241;28;20038;-82
2022/01/29 11:07:00;;;;;;;3.97;1.50;;;5.60;99.90;;;;;;4999742;28;20033;-83
2022/01/29 11:09:28;;;;;;;3.70;1.40;;;5.60;99.90;;;;;;4997155;28;20109;-82
2022/01/29 11:11:56;;;;;;;3.23;1.20;;;5.80;99.90;;;;;;5002315;28;20060;-76
2022/01/29 11:14:22;;;;;;;5.10;1.30;;;5.80;99.90;;;;;;5014643;28;20030;-77
2022/01/29 11:16:48;;;;;;;2.70;1.40;;;5.80;99.90;;;;;;5014524;28;20025;-75
2022/01/29 11:19:16;;;;;;;1.77;1.30;;;5.90;99.90;;;;;;5015059;28;20037;-75
2022/01/29 11:21:44;;;;;;;1.70;1.30;;;6.00;99.90;;;;;;5014709;28;20042;-75
2022/01/29 11:24:12;;;;;;;3.67;1.30;;;6.00;99.90;;;;;;5013481;28;20117;-75
2022/01/29 11:26:39;;;;;;;6.57;1.50;;;6.20;99.90;;;;;;4995630;28;20387;-75
2022/01/29 11:29:31;;;;;;;1.83;1.27;;;6.30;99.90;;;;;;5003606;28;20034;-83
2022/01/29 11:32:21;;;;;;;2.07;1.43;;;6.50;99.90;;;;;;5008337;28;20030;-83
2022/01/29 11:34:59;;;;;;;2.23;1.20;;;6.60;99.90;;;;;;5009944;28;20486;-83
2022/01/29 11:37:46;;;;;;;3.60;1.50;;;6.60;99.90;;;;;;5012012;28;20041;-83
2022/01/29 11:40:16;;;;;;;4.03;1.50;;;6.80;99.90;;;;;;5011784;28;20487;-83
2022/01/29 11:43:05;;;;;;;2.97;1.30;;;6.80;99.90;;;;;;5012026;28;20025;-83
2022/01/29 11:45:38;;;;;;;2.07;1.10;;;6.90;99.90;;;;;;5009108;28;20030;-83
2022/01/29 11:48:05;;;;;;;3.97;1.40;;;7.00;99.90;;;;;;5011704;28;20118;-84
2022/01/29 11:50:32;;;;;;;1.20;1.00;;;7.10;99.90;;;;;;5011817;28;20116;-84
2022/01/29 11:53:03;;;;;;;2.60;1.10;;;7.10;99.90;;;;;;5011697;28;20014;-83
2022/01/29 11:55:42;;;;;;;3.43;1.10;;;7.30;99.90;;;;;;5002852;28;20133;-82
2022/01/29 11:58:15;;;;;;;2.67;1.20;;;7.30;99.90;;;;;;4991517;28;20038;-84
2022/01/29 12:00:41;;;;;;;4.73;1.47;;;7.40;99.90;;;;;;4994537;28;20115;-82
2022/01/29 12:03:27;;;;;;;2.00;1.10;;;7.40;99.90;;;;;;5001452;28;20387;-82
2022/01/29 12:08:39;;;;;;;1.97;1.23;;;7.50;99.90;;;;;;5003016;28;19914;-82
2022/01/29 12:11:12;;;;;;;2.50;1.20;;;7.60;99.90;;;;;;4997158;28;20026;-82
2022/01/29 12:13:40;;;;;;;2.13;1.17;;;7.60;99.90;;;;;;4997682;28;20072;-82
2022/01/29 12:16:08;;;;;;;2.37;1.17;;;7.70;99.90;;;;;;4992382;28;20601;-83
2022/01/29 12:18:36;;;;;;;3.47;1.70;;;7.70;99.90;;;;;;5000982;28;20380;-84
2022/01/29 12:21:05;;;;;;;2.93;1.47;;;7.70;99.90;;;;;;5008562;28;20022;-84
2022/01/29 12:23:48;;;;;;;3.37;1.30;;;7.70;99.90;;;;;;5006988;28;20806;-84
2022/01/29 12:26:19;;;;;;;2.50;1.43;;;7.80;99.90;;;;;;5000946;28;20053;-79
2022/01/29 12:28:50;;;;;;;2.00;1.47;;;7.80;99.90;;;;;;4998374;28;20033;-75
2022/01/29 12:31:18;;;;;;;2.27;1.43;;;7.80;99.90;;;;;;5006279;28;20121;-81
2022/01/29 12:33:44;;;;;;;2.17;1.47;;;7.90;99.90;;;;;;5007362;28;20416;-81
2022/01/29 12:36:09;;;;;;;2.00;1.37;;;8.00;99.90;;;;;;5006798;28;20108;-80
2022/01/29 12:38:39;;;;;;;2.27;1.63;;;8.10;99.90;;;;;;5001913;28;20040;-80
2022/01/29 12:41:10;;;;;;;3.23;1.57;;;8.20;99.90;;;;;;4995397;28;20783;-80
2022/01/29 12:43:52;;;;;;;2.03;1.33;;;8.30;99.90;;;;;;4988080;28;20038;-80
2022/01/29 12:46:19;;;;;;;4.43;1.60;;;8.30;99.90;;;;;;4994020;28;20026;-80
2022/01/29 12:49:07;;;;;;;1.83;1.43;;;8.10;99.90;;;;;;5006384;28;20050;-79
2022/01/29 12:51:34;;;;;;;3.40;1.63;;;8.00;99.90;;;;;;4988559;28;20140;-81
2022/01/29 12:54:03;;;;;;;4.17;1.57;;;7.90;99.90;;;;;;4988153;28;20049;-79
2022/01/29 12:56:32;;;;;;;3.57;1.70;;;7.80;99.90;;;;;;4987961;28;20026;-79
2022/01/29 12:58:59;;;;;;;2.47;1.50;;;7.70;99.90;;;;;;4998592;28;20036;-79
2022/01/29 13:01:26;;;;;;;2.77;1.57;;;7.80;99.90;;;;;;5007584;28;20041;-78
2022/01/29 13:04:06;;;;;;;2.20;1.50;;;7.70;99.90;;;;;;5005146;28;20049;-79
2022/01/29 13:06:32;;;;;;;6.87;1.87;;;7.70;99.90;;;;;;5006862;28;20685;-79
2022/01/29 13:09:20;;;;;;;3.57;1.57;;;7.70;99.90;;;;;;4994648;28;20556;-77
2022/01/29 13:11:47;;;;;;;5.03;1.93;;;7.70;99.90;;;;;;5001965;28;20030;-65
2022/01/29 13:14:20;;;;;;;4.47;1.83;;;7.70;99.90;;;;;;4994578;28;20026;-66